Terminal Aerodrome Forecast
Issued by NWS Mt. Holly, NJ

Current Version | Previous Version | Text Only | Print | Product List | Glossary On
Versions: 1 2 3 4 5 6 7 8 9 10 11 12 13 14 15 16
000
FTUS41 KPHI 181120
TAFRDG
TAF
KRDG 181120Z 1812/1912 30004KT P6SM SCT250
     FM181600 28010G18KT P6SM SCT250
     FM190100 34008G16KT P6SM SKC
     FM190500 01006KT P6SM SKC
     FM190900 VRB03KT P6SM SKC=

USA.gov is the U.S. government's official web portal to all federal, state and local government web resources and services.